Main page
METAR-TAF:

METAR-TAF

Airports :

Srinagar International Airport

Srinagar, India

latitude: 33-59-14N, longitude: 074-46-27E, elevation: 1655 m

METAR: missing

Time: 19:15 (13:45 UTC)

Forecast

The report was made 16 hours and 15 minutes ago, at 21:30 UTC
Forecast valid from 28 at 00 UTC to 28 at 12 UTC
Wind 5 kt from the Southwest
Visibility: 6000 m
Few clouds at a height of 2500 ft
Scattered clouds at a height of 10000 ft
Becoming
from 28 at 04 UTC to 28 at 06 UTC
Scattered clouds at a height of 2500 ft
Broken clouds at a height of 9000 ft
rain
Temporary
from 28 at 09 UTC to 28 at 12 UTC
Wind 10 kt from the West/Southwest
Scattered clouds at a height of 2500 ft
Few clouds at a height of 3000 ft, Cumulonimbus.
Broken clouds at a height of 9000 ft
thunderstorm, rain

TAF: VISR 272130Z 2800/2812 22005KT 6000 FEW025 SCT100 BECMG 2804/2806 RA SCT025 BKN090 TEMPO 2809/2812 24010KT TSRA SCT025 FEW030CB BKN090

Weather observations and forecasts of more than 4000 airports (METAR and TAF reports).

The available stations are represented by yellow and red dots on the map.

Hover mouse over dot to see the name of the station.

Then click to see weather observations and forecasts.

To change the map : click on the green buttons with a black cross to zoom in, on the green button with a dash to zoom out, or on the green arrows for adjacent maps.


METAR-TAF: